Green Ridge, Missouri
Current Conditions -  °F | °C
As of 2:58 PM on Wednesday 26 Nov 2014 (Local Time) from KSZL Reporting Station
Overcast Overcast  
Wind Chill: 31°   Ceiling: 2500
Heat Index: 40°   Visibility: 10mi
Dew Point: 31°   Wind: 17mph
Humidity: 70%   Direction: 310°NW
Pressure: 30.02"   Gusts: 24mph
Location:  38.62°N, 93.41°W
Report Text: KSZL 262058Z 31015G21KT 10SM OVC025 05/00 A3002 RMK AO2A PK WND 29027/36 DZE2028 SLP175 P0000 60000 T00451005 52019 $
Loading
Personal Weather Stations






























Interactive Weather Map New forecast layout! Learn more

10-Day Weather Forecast

Advertisements
Track Severe Weather on mobile